Time;durP1;ratioP1;P1;durP2;ratioP2;P2;SDS_P1;SDS_P2;PMS_P1;PMS_P2;Temp;Humidity;BMP_temperature;BMP_pressure;BME280_temperature;BME280_humidity;BME280_pressure;Samples;Min_cycle;Max_cycle;Signal;HPM_P1;HPM_P2
2023/01/27 00:01:56;;;;;;;17.33;9.98;;;4.90;93.30;;;;;;5003385;28;20047;-83
2023/01/27 00:04:22;;;;;;;13.57;9.50;;;4.90;93.30;;;;;;5036020;28;20136;-82
2023/01/27 00:06:47;;;;;;;13.77;7.90;;;4.80;93.30;;;;;;5035643;28;20079;-82
2023/01/27 00:09:13;;;;;;;19.73;8.85;;;4.80;93.30;;;;;;5035743;28;20041;-83
2023/01/27 00:14:25;;;;;;;19.38;8.50;;;4.90;93.40;;;;;;5014789;28;20041;-83
2023/01/27 00:16:51;;;;;;;15.60;8.80;;;4.80;93.40;;;;;;5019391;28;20098;-82
2023/01/27 00:19:20;;;;;;;17.63;8.40;;;4.80;93.40;;;;;;5052365;28;20052;-82
2023/01/27 00:24:37;;;;;;;15.43;7.00;;;4.80;93.50;;;;;;5052889;28;20132;-82
2023/01/27 00:27:08;;;;;;;18.48;7.07;;;4.80;93.50;;;;;;5020126;28;20444;-82
2023/01/27 00:29:35;;;;;;;10.80;6.53;;;4.70;93.50;;;;;;5052194;28;20416;-82
2023/01/27 00:34:45;;;;;;;16.33;7.75;;;4.70;93.40;;;;;;5052056;28;20083;-82
2023/01/27 00:37:11;;;;;;;9.82;7.10;;;4.60;93.40;;;;;;5035356;28;20061;-82
2023/01/27 00:39:37;;;;;;;14.73;7.85;;;4.60;93.50;;;;;;5035361;28;20060;-82
2023/01/27 00:42:03;;;;;;;9.15;6.72;;;4.60;93.50;;;;;;5035302;28;20045;-82
2023/01/27 00:44:28;;;;;;;11.95;7.28;;;4.50;93.50;;;;;;5035424;28;20052;-82
2023/01/27 00:46:54;;;;;;;11.73;7.22;;;4.50;93.50;;;;;;5018740;28;20040;-82
2023/01/27 00:49:20;;;;;;;13.00;6.78;;;4.50;93.50;;;;;;5035190;28;20041;-82
2023/01/27 00:51:46;;;;;;;15.43;7.65;;;4.50;93.60;;;;;;5018876;28;20064;-82
2023/01/27 00:54:13;;;;;;;15.07;7.60;;;4.40;93.60;;;;;;5052084;28;20091;-82
2023/01/27 00:56:39;;;;;;;11.93;7.20;;;4.40;93.60;;;;;;5002823;28;20048;-82
2023/01/27 00:59:04;;;;;;;12.95;6.65;;;4.40;93.60;;;;;;5035243;28;20037;-82
2023/01/27 01:01:31;;;;;;;12.18;6.30;;;4.40;93.60;;;;;;5035231;28;20045;-82
2023/01/27 01:03:59;;;;;;;12.85;5.95;;;4.40;93.60;;;;;;5051993;28;20367;-82
2023/01/27 01:06:26;;;;;;;12.68;6.35;;;4.40;93.60;;;;;;5018876;28;20041;-82
2023/01/27 01:08:52;;;;;;;11.40;6.53;;;4.40;93.60;;;;;;5051516;28;20045;-82
2023/01/27 01:11:20;;;;;;;12.63;6.15;;;4.40;93.60;;;;;;5035208;28;20037;-82
2023/01/27 01:13:46;;;;;;;9.95;6.60;;;4.40;93.60;;;;;;5035286;28;20363;-82
2023/01/27 01:16:15;;;;;;;12.88;6.10;;;4.40;93.60;;;;;;5035210;28;20442;-82
2023/01/27 01:18:42;;;;;;;12.90;6.82;;;4.40;93.60;;;;;;5035035;28;20045;-82
2023/01/27 01:21:08;;;;;;;12.18;6.75;;;4.40;93.60;;;;;;5018654;28;20129;-82
2023/01/27 01:23:38;;;;;;;10.05;6.72;;;4.40;93.60;;;;;;5035253;28;20398;-82
2023/01/27 01:26:04;;;;;;;10.48;6.80;;;4.40;93.70;;;;;;5035269;28;20556;-83
2023/01/27 01:28:30;;;;;;;12.65;6.50;;;4.40;93.70;;;;;;5034543;28;20453;-83
2023/01/27 01:31:02;;;;;;;11.82;6.10;;;4.30;93.60;;;;;;5034377;28;20033;-82
2023/01/27 01:33:27;;;;;;;14.85;6.30;;;4.40;93.70;;;;;;5050973;28;20045;-82
2023/01/27 01:35:53;;;;;;;11.50;6.63;;;4.40;93.70;;;;;;5035216;28;20043;-82
2023/01/27 01:38:19;;;;;;;13.40;7.90;;;4.30;93.70;;;;;;5021296;28;20071;-82
2023/01/27 01:40:45;;;;;;;14.52;6.13;;;4.40;93.70;;;;;;5037981;28;20047;-82
2023/01/27 01:43:13;;;;;;;12.38;6.70;;;4.40;93.70;;;;;;5037864;28;20095;-82
2023/01/27 01:45:44;;;;;;;11.23;6.30;;;4.30;93.70;;;;;;5038024;28;20422;-82
2023/01/27 01:48:13;;;;;;;13.02;6.47;;;4.30;93.70;;;;;;5037675;28;20037;-82
2023/01/27 01:50:44;;;;;;;13.65;6.25;;;4.30;93.70;;;;;;5054298;28;20497;-82
2023/01/27 01:53:10;;;;;;;11.02;5.63;;;4.20;93.70;;;;;;5054321;28;20037;-82
2023/01/27 01:55:38;;;;;;;11.15;5.95;;;4.20;93.70;;;;;;5037618;28;20044;-82
2023/01/27 01:58:07;;;;;;;10.77;5.90;;;4.20;93.70;;;;;;5054153;28;20037;-82
2023/01/27 02:00:33;;;;;;;13.30;5.75;;;4.10;93.70;;;;;;5037599;28;20047;-83
2023/01/27 02:03:01;;;;;;;11.05;5.85;;;4.10;93.70;;;;;;5021334;28;20037;-82
2023/01/27 02:05:31;;;;;;;10.57;5.80;;;4.10;93.70;;;;;;5054363;28;20045;-82
2023/01/27 02:08:19;;;;;;;12.73;6.90;;;4.10;93.80;;;;;;5054289;28;20452;-82
2023/01/27 02:10:45;;;;;;;8.50;5.43;;;4.10;93.80;;;;;;5037425;28;20084;-82
2023/01/27 02:13:11;;;;;;;14.95;6.35;;;4.10;93.80;;;;;;5037865;28;20076;-82
2023/01/27 02:15:37;;;;;;;13.73;5.78;;;4.10;93.80;;;;;;5037255;28;20036;-82
2023/01/27 02:18:04;;;;;;;11.65;5.20;;;4.10;93.80;;;;;;5037518;28;20041;-82
2023/01/27 02:20:35;;;;;;;11.98;5.63;;;4.10;93.90;;;;;;5053826;28;20036;-82
2023/01/27 02:23:28;;;;;;;11.55;6.25;;;4.10;93.90;;;;;;5054036;28;20441;-82
2023/01/27 02:26:30;;;;;;;10.98;6.00;;;4.10;93.90;;;;;;5053767;28;20482;-82
2023/01/27 02:29:09;;;;;;;12.52;5.10;;;4.10;94.00;;;;;;5033420;28;20056;-82
2023/01/27 02:31:34;;;;;;;10.02;4.88;;;4.10;94.00;;;;;;5053655;28;20040;-82
2023/01/27 02:34:15;;;;;;;13.07;5.10;;;4.10;94.00;;;;;;5036964;28;20397;-82
2023/01/27 02:36:48;;;;;;;12.82;4.32;;;4.10;94.00;;;;;;5036828;28;20044;-82
2023/01/27 02:39:17;;;;;;;10.57;4.63;;;4.10;94.00;;;;;;5036865;28;20410;-82
2023/01/27 02:41:47;;;;;;;16.48;4.97;;;4.10;94.00;;;;;;5053643;28;20151;-82
2023/01/27 02:44:13;;;;;;;7.90;4.32;;;4.10;94.00;;;;;;5037041;28;20052;-82
2023/01/27 02:46:39;;;;;;;9.98;4.05;;;4.10;94.00;;;;;;5036623;28;20468;-82
2023/01/27 02:49:04;;;;;;;9.93;4.28;;;4.10;94.00;;;;;;5036965;28;20048;-83
2023/01/27 02:51:30;;;;;;;10.07;4.10;;;4.00;94.10;;;;;;5020114;28;20032;-83
2023/01/27 02:53:56;;;;;;;11.80;4.93;;;4.00;94.10;;;;;;5003814;28;20045;-83
2023/01/27 02:56:22;;;;;;;6.93;3.63;;;4.00;94.10;;;;;;5020168;28;20083;-83
2023/01/27 02:58:48;;;;;;;10.35;3.42;;;4.10;94.10;;;;;;5053347;28;20080;-82
2023/01/27 03:01:14;;;;;;;5.20;3.00;;;4.00;94.10;;;;;;5019949;28;20528;-82
2023/01/27 03:03:45;;;;;;;7.88;2.83;;;4.00;94.00;;;;;;5052991;28;20127;-82
2023/01/27 03:06:12;;;;;;;9.10;2.40;;;3.90;94.00;;;;;;5021590;28;20080;-83
2023/01/27 03:08:37;;;;;;;7.43;2.22;;;4.00;94.00;;;;;;5003750;28;20080;-82
2023/01/27 03:11:03;;;;;;;7.32;2.47;;;3.90;93.80;;;;;;5003427;28;20037;-82
2023/01/27 03:13:29;;;;;;;4.90;1.70;;;4.00;93.90;;;;;;5019940;28;20398;-82
2023/01/27 03:18:46;;;;;;;7.38;2.28;;;3.90;93.50;;;;;;5052727;28;20516;-83
2023/01/27 03:21:13;;;;;;;8.30;2.20;;;3.90;93.30;;;;;;5036536;28;20119;-83
2023/01/27 03:23:38;;;;;;;8.13;2.08;;;3.90;93.00;;;;;;5052866;28;20044;-82
2023/01/27 03:26:08;;;;;;;5.72;1.73;;;3.90;93.10;;;;;;5036313;28;20363;-82
2023/01/27 03:28:35;;;;;;;5.68;1.65;;;4.00;93.40;;;;;;5035775;28;20063;-82
2023/01/27 03:31:02;;;;;;;3.03;1.67;;;4.00;93.50;;;;;;5019524;28;20048;-83
2023/01/27 03:33:28;;;;;;;4.93;1.63;;;4.00;93.40;;;;;;5052701;28;20393;-83
2023/01/27 03:46:53;;;;;;;3.78;1.63;;;4.00;92.70;;;;;;5052465;28;20462;-82
2023/01/27 03:49:19;;;;;;;3.78;1.40;;;3.90;92.30;;;;;;5019195;28;20120;-82
2023/01/27 03:51:45;;;;;;;4.60;2.13;;;3.90;92.10;;;;;;5035556;28;20477;-82
2023/01/27 03:54:10;;;;;;;3.92;1.60;;;3.90;92.10;;;;;;5035470;28;20063;-83
2023/01/27 03:56:36;;;;;;;3.35;1.90;;;3.90;92.00;;;;;;5035301;28;20095;-83
2023/01/27 03:59:02;;;;;;;4.35;1.35;;;3.90;92.00;;;;;;5018434;28;20037;-82
2023/01/27 04:01:28;;;;;;;5.05;1.77;;;3.90;92.10;;;;;;5019231;28;20132;-82
2023/01/27 04:09:39;;;;;;;4.05;1.40;;;3.80;91.60;;;;;;5051700;28;20056;-83
2023/01/27 04:12:05;;;;;;;4.03;1.30;;;3.70;91.20;;;;;;5034949;28;20049;-83
2023/01/27 04:14:40;;;;;;;3.92;1.65;;;3.70;91.10;;;;;;5051704;28;20075;-83
2023/01/27 04:17:11;;;;;;;2.97;1.60;;;3.60;91.50;;;;;;5035072;28;20032;-82
2023/01/27 04:19:37;;;;;;;5.63;1.40;;;3.60;91.60;;;;;;5035100;28;20090;-83
2023/01/27 04:22:04;;;;;;;3.50;1.90;;;3.60;91.40;;;;;;5051971;28;20040;-82
2023/01/27 04:24:30;;;;;;;4.97;1.63;;;3.50;91.30;;;;;;5035051;28;20052;-83
2023/01/27 04:27:02;;;;;;;4.93;1.55;;;3.60;91.30;;;;;;5034949;28;20041;-83
2023/01/27 04:29:35;;;;;;;4.00;1.67;;;3.50;91.40;;;;;;5051450;28;20132;-82
2023/01/27 04:32:03;;;;;;;2.08;1.30;;;3.50;91.30;;;;;;5034915;28;20041;-82
2023/01/27 04:34:29;;;;;;;3.67;1.48;;;3.50;91.50;;;;;;5034849;28;20037;-83
2023/01/27 04:36:55;;;;;;;2.90;1.58;;;3.40;91.40;;;;;;5051668;28;20037;-83
2023/01/27 04:39:21;;;;;;;3.70;2.10;;;3.40;91.50;;;;;;5018307;28;20064;-83
2023/01/27 04:41:48;;;;;;;4.55;2.03;;;3.40;91.60;;;;;;5018684;28;20049;-82
2023/01/27 04:44:14;;;;;;;5.90;1.75;;;3.40;91.90;;;;;;5035102;28;20395;-83
2023/01/27 04:46:40;;;;;;;2.53;1.70;;;3.40;91.60;;;;;;5034989;28;20045;-83
2023/01/27 04:49:06;;;;;;;4.80;1.75;;;3.40;91.70;;;;;;5034934;28;20039;-83
2023/01/27 04:51:32;;;;;;;4.15;1.92;;;3.40;91.80;;;;;;5034719;28;20124;-82
2023/01/27 04:53:58;;;;;;;3.80;1.75;;;3.40;91.90;;;;;;5002209;28;20040;-83
2023/01/27 04:56:28;;;;;;;4.38;2.20;;;3.40;91.60;;;;;;5034759;28;20486;-83
2023/01/27 04:58:57;;;;;;;3.38;2.15;;;3.40;91.80;;;;;;5051316;28;20045;-83
2023/01/27 05:01:23;;;;;;;4.20;2.13;;;3.40;91.90;;;;;;5051207;28;20037;-83
2023/01/27 05:03:49;;;;;;;5.68;2.30;;;3.40;91.80;;;;;;5018583;28;20048;-83
2023/01/27 05:06:15;;;;;;;8.13;2.70;;;3.50;91.80;;;;;;5051059;28;20406;-83
2023/01/27 05:08:41;;;;;;;4.25;2.38;;;3.50;91.80;;;;;;5051387;28;20128;-83
2023/01/27 05:11:07;;;;;;;5.60;2.33;;;3.50;91.80;;;;;;5035547;28;20581;-83
2023/01/27 05:13:33;;;;;;;3.80;2.10;;;3.40;91.80;;;;;;5038567;28;20044;-82
2023/01/27 05:16:13;;;;;;;4.75;2.40;;;3.40;91.50;;;;;;5055211;28;20039;-83
2023/01/27 05:18:40;;;;;;;6.40;3.28;;;3.30;91.50;;;;;;5038346;28;20037;-83
2023/01/27 05:21:07;;;;;;;5.38;3.00;;;3.30;91.40;;;;;;5022006;28;20033;-83
2023/01/27 05:23:35;;;;;;;6.60;3.20;;;3.20;91.40;;;;;;5038637;28;20049;-83
2023/01/27 05:26:12;;;;;;;6.43;3.17;;;3.20;91.60;;;;;;5038592;28;20041;-83
2023/01/27 05:28:40;;;;;;;4.72;3.05;;;3.20;91.80;;;;;;5054683;28;20094;-83
2023/01/27 05:31:12;;;;;;;4.15;2.92;;;3.20;91.70;;;;;;5038101;28;20037;-83
2023/01/27 05:33:38;;;;;;;3.65;3.17;;;3.20;91.70;;;;;;5054748;28;20120;-83
2023/01/27 05:36:06;;;;;;;4.30;2.80;;;3.20;91.70;;;;;;5038277;28;20506;-82
2023/01/27 05:38:32;;;;;;;5.22;2.65;;;3.20;91.80;;;;;;5038083;28;20394;-82
2023/01/27 05:41:03;;;;;;;5.72;2.50;;;3.30;91.70;;;;;;5021406;28;20040;-82
2023/01/27 05:43:30;;;;;;;4.20;2.72;;;3.20;91.70;;;;;;5037995;28;20048;-83
2023/01/27 05:46:07;;;;;;;6.28;2.75;;;3.20;91.60;;;;;;5054751;28;20107;-83
2023/01/27 05:48:39;;;;;;;8.73;3.00;;;3.30;91.50;;;;;;5037886;28;20098;-82
2023/01/27 05:51:05;;;;;;;6.78;2.75;;;3.20;91.40;;;;;;5037769;28;20513;-82
2023/01/27 05:53:31;;;;;;;5.35;2.13;;;3.20;91.40;;;;;;5037702;28;20041;-82
2023/01/27 05:55:57;;;;;;;7.13;2.53;;;3.20;91.50;;;;;;5054257;28;20094;-83
2023/01/27 05:58:23;;;;;;;6.38;2.35;;;3.30;91.50;;;;;;5037780;28;20120;-83
2023/01/27 06:00:50;;;;;;;5.97;3.28;;;3.30;91.40;;;;;;5037798;28;20040;-83
2023/01/27 06:03:15;;;;;;;2.05;1.73;;;3.20;91.40;;;;;;5005073;28;20059;-82
2023/01/27 06:05:55;;;;;;;4.88;2.30;;;3.20;91.30;;;;;;5021075;28;20033;-83
2023/01/27 06:08:22;;;;;;;4.50;1.90;;;3.30;91.40;;;;;;5053872;28;20585;-82
2023/01/27 06:10:48;;;;;;;4.50;1.98;;;3.20;91.30;;;;;;5037452;28;20041;-84
2023/01/27 06:13:14;;;;;;;7.20;2.00;;;3.20;91.30;;;;;;5037349;28;20048;-82
2023/01/27 06:15:42;;;;;;;2.55;1.52;;;3.20;91.10;;;;;;5021184;28;20037;-83
2023/01/27 06:18:08;;;;;;;4.57;1.67;;;3.20;91.20;;;;;;5053829;28;20044;-82
2023/01/27 06:20:33;;;;;;;4.13;1.50;;;3.20;91.10;;;;;;5004342;28;20037;-82
2023/01/27 06:23:00;;;;;;;5.25;1.95;;;3.30;91.10;;;;;;5036748;28;20048;-82
2023/01/27 06:25:26;;;;;;;4.97;1.70;;;3.30;91.00;;;;;;5021436;28;20060;-83
2023/01/27 06:27:55;;;;;;;3.30;1.90;;;3.30;91.20;;;;;;5020590;28;20037;-82
2023/01/27 06:30:22;;;;;;;4.60;1.50;;;3.30;91.20;;;;;;5053551;28;20047;-82
2023/01/27 06:32:48;;;;;;;4.13;1.55;;;3.30;91.00;;;;;;5053588;28;20087;-82
2023/01/27 06:35:14;;;;;;;4.93;1.70;;;3.30;91.20;;;;;;5036836;28;20080;-82
2023/01/27 06:37:39;;;;;;;3.33;1.42;;;3.30;91.20;;;;;;5037092;28;20478;-82
2023/01/27 06:40:06;;;;;;;3.90;1.30;;;3.30;90.70;;;;;;5004067;28;20052;-82
2023/01/27 06:42:31;;;;;;;3.25;1.40;;;3.40;90.90;;;;;;5053573;28;20089;-81
2023/01/27 06:44:57;;;;;;;5.05;1.35;;;3.40;90.80;;;;;;5033924;28;20099;-82
2023/01/27 06:47:23;;;;;;;3.60;1.40;;;3.40;90.80;;;;;;5014058;28;20372;-82
2023/01/27 06:49:48;;;;;;;12.25;7.65;;;3.40;90.40;;;;;;5032121;28;20041;-82
2023/01/27 06:52:14;;;;;;;4.22;2.72;;;3.40;90.60;;;;;;5001815;28;20044;-83
2023/01/27 06:54:40;;;;;;;4.88;2.58;;;3.40;90.50;;;;;;5018542;28;20068;-81
2023/01/27 06:57:09;;;;;;;3.97;2.80;;;3.40;90.60;;;;;;5036360;28;20033;-81
2023/01/27 06:59:34;;;;;;;9.93;3.63;;;3.40;90.20;;;;;;5053706;28;20073;-82
2023/01/27 07:02:00;;;;;;;6.15;1.33;;;3.40;90.20;;;;;;5020847;28;20072;-82
2023/01/27 07:04:26;;;;;;;3.92;1.30;;;3.40;90.20;;;;;;5034926;28;20045;-81
2023/01/27 07:06:51;;;;;;;2.53;1.60;;;3.40;90.30;;;;;;5051144;28;20047;-81
2023/01/27 07:09:17;;;;;;;3.85;1.50;;;3.40;90.20;;;;;;5034734;28;20140;-82
2023/01/27 07:11:43;;;;;;;4.70;1.70;;;3.40;90.00;;;;;;5018868;28;20037;-82
2023/01/27 07:14:09;;;;;;;4.78;1.52;;;3.40;90.20;;;;;;5035664;28;20037;-82
2023/01/27 07:16:35;;;;;;;11.25;3.90;;;3.40;89.90;;;;;;5036012;28;20036;-82
2023/01/27 07:19:00;;;;;;;3.92;1.60;;;3.40;89.80;;;;;;5035728;28;20482;-82
2023/01/27 07:21:26;;;;;;;5.03;2.08;;;3.40;89.90;;;;;;5019833;28;20132;-82
2023/01/27 07:23:52;;;;;;;6.03;1.92;;;3.50;89.60;;;;;;5035751;28;20095;-82
2023/01/27 07:26:17;;;;;;;7.97;5.80;;;3.50;89.70;;;;;;5019059;28;20474;-81
2023/01/27 07:28:43;;;;;;;7.47;5.20;;;3.50;89.70;;;;;;5035919;28;20041;-82
2023/01/27 07:31:09;;;;;;;13.05;11.40;;;3.50;89.70;;;;;;5018985;28;20402;-82
2023/01/27 07:33:36;;;;;;;17.52;13.55;;;3.40;89.30;;;;;;5034719;28;20124;-82
2023/01/27 07:36:01;;;;;;;101.88;68.28;;;3.40;89.50;;;;;;5036168;28;20080;-82
2023/01/27 07:38:27;;;;;;;75.45;40.83;;;3.40;89.40;;;;;;5035443;28;20532;-82
2023/01/27 07:40:53;;;;;;;13.80;7.18;;;3.50;89.80;;;;;;5019561;28;20037;-82
2023/01/27 07:43:19;;;;;;;61.92;26.40;;;3.40;89.30;;;;;;5019041;28;20551;-82
2023/01/27 07:45:47;;;;;;;84.85;37.08;;;3.40;89.40;;;;;;5019424;28;20040;-82
2023/01/27 07:48:15;;;;;;;240.95;117.95;;;3.50;89.40;;;;;;5019374;28;20071;-82
2023/01/27 07:50:41;;;;;;;117.05;54.38;;;3.50;89.50;;;;;;5019522;28;20090;-82
2023/01/27 07:53:06;;;;;;;125.70;55.10;;;3.50;89.30;;;;;;5019243;28;20041;-82
2023/01/27 07:55:32;;;;;;;103.75;40.30;;;3.50;89.40;;;;;;5035762;28;20514;-83
2023/01/27 07:57:58;;;;;;;40.10;22.17;;;3.50;89.60;;;;;;5052021;28;20063;-82
2023/01/27 08:00:25;;;;;;;15.23;8.65;;;3.50;89.20;;;;;;5035687;28;20208;-82
2023/01/27 08:02:51;;;;;;;8.98;6.18;;;3.50;89.20;;;;;;5035266;28;20585;-82
2023/01/27 08:05:19;;;;;;;10.63;5.60;;;3.50;89.10;;;;;;5035076;28;20556;-82
2023/01/27 08:07:44;;;;;;;23.63;16.92;;;3.50;89.20;;;;;;5019268;28;20045;-82
2023/01/27 08:10:10;;;;;;;20.27;13.43;;;3.50;89.20;;;;;;5035253;28;20040;-82
2023/01/27 08:12:36;;;;;;;13.35;8.30;;;3.50;89.30;;;;;;5035262;28;20033;-82
2023/01/27 08:15:02;;;;;;;13.05;9.88;;;3.50;89.20;;;;;;5018713;28;20045;-82
2023/01/27 08:17:27;;;;;;;3.95;3.25;;;3.50;89.30;;;;;;5035131;28;20102;-82
2023/01/27 08:19:53;;;;;;;63.47;45.00;;;3.60;89.30;;;;;;5018576;28;20040;-83
2023/01/27 08:22:21;;;;;;;16.63;12.23;;;3.60;89.40;;;;;;5035037;28;20128;-82
2023/01/27 08:24:48;;;;;;;10.93;7.93;;;3.60;89.30;;;;;;5035211;28;20091;-82
2023/01/27 08:27:15;;;;;;;7.43;6.60;;;3.60;89.30;;;;;;5051616;28;20044;-83
2023/01/27 08:29:40;;;;;;;4.15;1.95;;;3.60;89.40;;;;;;5035116;28;20040;-82
2023/01/27 08:32:06;;;;;;;4.80;2.00;;;3.60;89.40;;;;;;5034846;28;20040;-82
2023/01/27 08:34:32;;;;;;;8.18;2.30;;;3.70;89.50;;;;;;5034802;28;20033;-82
2023/01/27 08:36:58;;;;;;;5.10;3.90;;;3.70;89.40;;;;;;5002415;28;20116;-82
2023/01/27 08:39:24;;;;;;;6.68;4.03;;;3.60;89.20;;;;;;5034752;28;20194;-82
2023/01/27 08:41:50;;;;;;;4.30;3.10;;;3.70;89.10;;;;;;5034883;28;20502;-82
2023/01/27 08:44:16;;;;;;;5.32;2.20;;;3.70;89.40;;;;;;5034662;28;20045;-82
2023/01/27 08:46:41;;;;;;;7.57;2.03;;;3.70;89.30;;;;;;5038395;28;20044;-82
2023/01/27 08:49:07;;;;;;;3.33;1.40;;;3.80;89.40;;;;;;5037693;28;20447;-82
2023/01/27 08:51:33;;;;;;;4.93;1.77;;;3.80;89.20;;;;;;5037611;28;20033;-82
2023/01/27 08:53:59;;;;;;;5.95;2.05;;;3.80;89.00;;;;;;5021573;28;20398;-82
2023/01/27 08:56:24;;;;;;;7.75;2.10;;;3.80;89.10;;;;;;5005856;28;20040;-82
2023/01/27 08:58:51;;;;;;;4.05;2.03;;;3.90;88.90;;;;;;5005543;28;20128;-82
2023/01/27 09:01:18;;;;;;;2.67;1.20;;;3.80;88.90;;;;;;5038288;28;20076;-82
2023/01/27 09:03:44;;;;;;;4.43;1.50;;;3.90;88.80;;;;;;5022138;28;20044;-82
2023/01/27 09:06:12;;;;;;;3.33;1.60;;;3.80;88.70;;;;;;5038574;28;20076;-82
2023/01/27 09:08:38;;;;;;;5.38;1.60;;;3.90;88.80;;;;;;5038766;28;20044;-82
2023/01/27 09:11:15;;;;;;;4.50;1.25;;;3.90;88.80;;;;;;5055139;28;20510;-81
2023/01/27 09:13:41;;;;;;;4.05;1.27;;;4.00;88.90;;;;;;5038608;28;20094;-81
2023/01/27 09:16:08;;;;;;;3.97;1.27;;;3.90;88.90;;;;;;5038673;28;20107;-81
2023/01/27 09:18:34;;;;;;;2.47;1.02;;;3.90;88.80;;;;;;5055049;28;20037;-81
2023/01/27 09:21:04;;;;;;;4.22;0.88;;;3.90;88.80;;;;;;5038328;28;20039;-82
2023/01/27 09:23:30;;;;;;;5.45;0.90;;;4.00;88.90;;;;;;5038265;28;20044;-82
2023/01/27 09:25:56;;;;;;;3.38;1.40;;;4.00;88.80;;;;;;5021571;28;20037;-81
2023/01/27 09:28:22;;;;;;;3.17;0.88;;;4.00;88.70;;;;;;5005298;28;20048;-82
2023/01/27 09:30:48;;;;;;;1.02;0.60;;;4.00;88.90;;;;;;5005344;28;20033;-82
2023/01/27 09:33:14;;;;;;;1.05;0.55;;;4.10;88.70;;;;;;5038447;28;20049;-82
2023/01/27 09:35:51;;;;;;;3.72;0.98;;;4.10;88.80;;;;;;5021709;28;20037;-82
2023/01/27 09:38:21;;;;;;;1.83;0.80;;;4.10;88.70;;;;;;5037957;28;20079;-82
2023/01/27 09:41:08;;;;;;;1.42;0.85;;;4.10;88.70;;;;;;5038205;28;20046;-82
2023/01/27 09:44:12;;;;;;;4.75;0.90;;;4.10;88.60;;;;;;5038170;28;20050;-83
2023/01/27 09:46:53;;;;;;;5.50;0.80;;;4.10;88.70;;;;;;5034711;28;20059;-82
2023/01/27 09:49:47;;;;;;;3.45;1.40;;;4.10;88.70;;;;;;5047955;28;20091;-82
2023/01/27 09:52:40;;;;;;;9.05;4.82;;;4.20;88.80;;;;;;5051723;28;20056;-82
2023/01/27 09:55:21;;;;;;;14.77;7.13;;;4.20;88.80;;;;;;5046414;28;20073;-82
2023/01/27 09:58:06;;;;;;;8.38;3.00;;;4.20;88.90;;;;;;5032077;28;20043;-82
2023/01/27 10:00:52;;;;;;;17.35;6.93;;;4.20;88.80;;;;;;5052420;28;20090;-82
2023/01/27 10:03:36;;;;;;;50.47;24.95;;;4.30;88.90;;;;;;5035658;28;20048;-82
2023/01/27 10:06:20;;;;;;;55.17;27.02;;;4.30;89.00;;;;;;5032003;28;20048;-82
2023/01/27 10:09:06;;;;;;;25.98;15.40;;;4.30;89.10;;;;;;5033802;28;20076;-82
2023/01/27 10:12:03;;;;;;;3.88;3.45;;;4.40;89.20;;;;;;5035386;28;20059;-84
2023/01/27 10:14:47;;;;;;;2.90;1.30;;;4.40;89.20;;;;;;5036177;28;20064;-83
2023/01/27 10:17:33;;;;;;;2.77;1.20;;;4.40;89.10;;;;;;5037384;28;20137;-82
2023/01/27 10:19:59;;;;;;;1.55;0.80;;;4.60;89.20;;;;;;5037600;28;20036;-82
2023/01/27 10:23:03;;;;;;;3.10;1.25;;;4.70;89.30;;;;;;5053442;28;20379;-84
2023/01/27 10:25:41;;;;;;;3.17;1.20;;;4.80;89.30;;;;;;5053956;28;20087;-82
2023/01/27 10:28:16;;;;;;;1.77;0.70;;;4.90;89.20;;;;;;5038217;28;20047;-82
2023/01/27 10:30:52;;;;;;;3.85;0.80;;;4.90;89.10;;;;;;5037408;28;20049;-82
2023/01/27 10:33:24;;;;;;;3.17;0.93;;;4.90;89.00;;;;;;5037159;28;20048;-82
2023/01/27 10:35:52;;;;;;;1.85;1.20;;;4.90;89.10;;;;;;5037431;28;20128;-81
2023/01/27 10:38:39;;;;;;;3.22;0.70;;;5.00;89.20;;;;;;5053451;28;20049;-82
2023/01/27 10:41:20;;;;;;;3.08;1.20;;;5.00;89.30;;;;;;5036864;28;20414;-82
2023/01/27 10:44:00;;;;;;;1.88;0.65;;;5.00;89.20;;;;;;5037080;28;20128;-81
2023/01/27 10:46:28;;;;;;;5.55;1.00;;;5.10;89.30;;;;;;5036793;28;20040;-82
2023/01/27 10:49:02;;;;;;;2.63;0.90;;;5.20;89.30;;;;;;5036855;28;20064;-82
2023/01/27 10:51:36;;;;;;;3.03;0.98;;;5.10;89.20;;;;;;5036920;28;20037;-82
2023/01/27 10:54:14;;;;;;;1.85;0.70;;;5.20;89.20;;;;;;5053207;28;20041;-82
2023/01/27 10:56:50;;;;;;;2.90;0.77;;;5.10;89.00;;;;;;5053194;28;20135;-82
2023/01/27 10:59:24;;;;;;;2.78;0.90;;;5.10;89.20;;;;;;5036688;28;20044;-81
2023/01/27 11:02:08;;;;;;;2.22;0.90;;;5.40;89.30;;;;;;5053286;28;20402;-81
2023/01/27 11:04:43;;;;;;;3.53;0.90;;;5.60;89.10;;;;;;5036638;28;20041;-81
2023/01/27 11:07:20;;;;;;;1.55;0.70;;;5.80;88.90;;;;;;5052967;28;20045;-81
2023/01/27 11:10:01;;;;;;;1.67;0.73;;;5.80;88.40;;;;;;5035262;28;20119;-81
2023/01/27 11:12:42;;;;;;;2.05;0.60;;;5.80;88.70;;;;;;5036194;28;20120;-82
2023/01/27 11:15:25;;;;;;;2.45;0.60;;;5.70;88.50;;;;;;5036234;28;20049;-83
2023/01/27 11:17:58;;;;;;;1.40;0.65;;;5.60;88.10;;;;;;5052814;28;20048;-84
2023/01/27 11:20:38;;;;;;;5.22;0.60;;;5.50;88.00;;;;;;5036794;28;20041;-82
2023/01/27 11:23:09;;;;;;;1.02;0.70;;;5.40;88.20;;;;;;5052592;28;20045;-82
2023/01/27 11:25:58;;;;;;;2.92;0.60;;;5.40;88.10;;;;;;5035959;28;20052;-81
2023/01/27 11:28:42;;;;;;;2.22;0.82;;;5.40;87.90;;;;;;5036302;28;20053;-83
2023/01/27 11:31:41;;;;;;;2.83;0.77;;;5.40;88.00;;;;;;5036115;28;20080;-81
2023/01/27 11:34:30;;;;;;;1.90;0.77;;;5.40;87.90;;;;;;5052463;28;20140;-82
2023/01/27 11:36:56;;;;;;;1.52;0.70;;;5.40;88.10;;;;;;5035856;28;20047;-82
2023/01/27 11:39:22;;;;;;;3.60;0.75;;;5.50;87.70;;;;;;5035775;28;20093;-81
2023/01/27 11:41:54;;;;;;;1.95;0.65;;;5.50;87.50;;;;;;5035920;28;20621;-82
2023/01/27 11:44:25;;;;;;;0.82;0.63;;;5.60;88.00;;;;;;5035834;28;20037;-82
2023/01/27 11:46:52;;;;;;;1.83;0.70;;;5.50;87.60;;;;;;5035604;28;20037;-82
2023/01/27 11:49:26;;;;;;;1.30;0.60;;;5.50;88.00;;;;;;5052090;28;20045;-81
2023/01/27 11:52:08;;;;;;;3.92;1.75;;;5.40;87.80;;;;;;5052255;28;20045;-81
2023/01/27 11:54:40;;;;;;;2.15;0.85;;;5.40;87.60;;;;;;5052115;28;20040;-81
2023/01/27 11:57:19;;;;;;;2.33;0.60;;;5.40;87.90;;;;;;5035511;28;20039;-82
2023/01/27 11:59:46;;;;;;;1.92;0.80;;;5.50;87.90;;;;;;5035483;28;20037;-82
2023/01/27 12:02:23;;;;;;;3.75;2.08;;;5.40;88.00;;;;;;5018992;28;20470;-82
2023/01/27 12:04:51;;;;;;;2.17;1.10;;;5.40;87.90;;;;;;5051840;28;20688;-82
2023/01/27 12:07:29;;;;;;;2.72;0.85;;;5.40;87.80;;;;;;5052006;28;20044;-81
2023/01/27 12:09:55;;;;;;;3.72;1.00;;;5.30;87.90;;;;;;5035301;28;20083;-81
2023/01/27 12:12:24;;;;;;;3.08;1.10;;;5.30;87.80;;;;;;5019188;28;20033;-82
2023/01/27 12:14:56;;;;;;;8.23;1.45;;;5.30;87.70;;;;;;5051709;28;20044;-82
2023/01/27 12:17:39;;;;;;;1.98;1.13;;;5.20;87.60;;;;;;5035414;28;20060;-82
2023/01/27 12:20:21;;;;;;;1.23;0.90;;;5.20;88.00;;;;;;5051539;28;20045;-82
2023/01/27 12:22:57;;;;;;;2.15;0.75;;;5.10;87.60;;;;;;5035363;28;20063;-82
2023/01/27 12:25:31;;;;;;;1.60;0.82;;;5.10;87.90;;;;;;5035323;28;20087;-81
2023/01/27 12:28:02;;;;;;;1.92;1.00;;;5.10;88.00;;;;;;5035571;28;20051;-80
2023/01/27 12:30:34;;;;;;;3.58;0.85;;;5.10;87.90;;;;;;5051911;28;20479;-81
2023/01/27 12:33:10;;;;;;;1.80;0.93;;;5.00;87.90;;;;;;5052142;28;20429;-82
2023/01/27 12:35:36;;;;;;;2.33;1.13;;;5.00;87.90;;;;;;5051808;28;20037;-81
2023/01/27 12:38:10;;;;;;;2.25;1.38;;;5.00;87.90;;;;;;5018857;28;20063;-80
2023/01/27 12:40:42;;;;;;;3.70;1.40;;;5.00;88.10;;;;;;5035118;28;20164;-80
2023/01/27 12:43:15;;;;;;;1.88;0.90;;;5.00;88.20;;;;;;5031456;28;20049;-81
2023/01/27 12:45:42;;;;;;;2.83;1.17;;;4.90;88.30;;;;;;5015066;28;20133;-81
2023/01/27 12:48:08;;;;;;;2.05;1.00;;;4.90;88.20;;;;;;5031712;28;20402;-81
2023/01/27 12:50:39;;;;;;;0.95;0.80;;;4.90;88.50;;;;;;5014760;28;20052;-81
2023/01/27 12:53:13;;;;;;;1.70;1.10;;;4.90;88.60;;;;;;5015285;28;20446;-80
2023/01/27 12:55:43;;;;;;;1.83;0.80;;;4.90;88.60;;;;;;5015059;28;20418;-81
2023/01/27 12:58:30;;;;;;;2.15;0.80;;;4.80;88.70;;;;;;5014889;28;20041;-81
2023/01/27 13:00:58;;;;;;;2.78;1.02;;;4.80;88.80;;;;;;5014923;28;20099;-82
2023/01/27 13:03:25;;;;;;;1.70;1.08;;;4.90;88.80;;;;;;5014755;28;20073;-81
2023/01/27 13:05:57;;;;;;;1.55;1.20;;;4.80;88.50;;;;;;5031259;28;20050;-81
2023/01/27 13:08:25;;;;;;;1.98;1.30;;;4.70;88.80;;;;;;5031471;28;20041;-80
2023/01/27 13:10:52;;;;;;;2.13;1.40;;;4.80;88.90;;;;;;4998841;28;20042;-81
2023/01/27 13:13:23;;;;;;;3.42;1.50;;;4.80;89.10;;;;;;5031381;28;20084;-80
2023/01/27 13:16:16;;;;;;;3.17;1.17;;;4.70;89.10;;;;;;5014871;28;20052;-81
2023/01/27 13:18:53;;;;;;;2.22;1.30;;;4.60;88.90;;;;;;5014819;28;20041;-81
2023/01/27 13:21:22;;;;;;;2.67;1.00;;;4.70;89.20;;;;;;5014780;28;20151;-80
2023/01/27 13:23:51;;;;;;;1.50;1.00;;;4.60;89.20;;;;;;5014577;28;20037;-81
2023/01/27 13:26:25;;;;;;;2.55;0.93;;;4.60;89.20;;;;;;5031150;28;20036;-81
2023/01/27 13:28:55;;;;;;;3.83;1.50;;;4.60;89.20;;;;;;5031377;28;20485;-81
2023/01/27 13:31:51;;;;;;;1.27;0.85;;;4.60;89.30;;;;;;5014531;28;20129;-81
2023/01/27 13:34:44;;;;;;;1.95;0.90;;;4.60;89.20;;;;;;5018514;28;20384;-81
2023/01/27 13:37:42;;;;;;;1.52;0.90;;;4.60;89.20;;;;;;5032557;28;20164;-81